Time;durP1;ratioP1;P1;durP2;ratioP2;P2;SDS_P1;SDS_P2;PMS_P1;PMS_P2;Temp;Humidity;BMP_temperature;BMP_pressure;BME280_temperature;BME280_humidity;BME280_pressure;Samples;Min_cycle;Max_cycle;Signal;HPM_P1;HPM_P2
2022/08/06 00:01:41;;;;;;;17.98;8.70;;;23.90;91.30;;;;;;5031132;28;20108;-65
2022/08/06 00:04:07;;;;;;;21.95;8.73;;;;;;;;;;5031491;28;20104;-64
2022/08/06 00:06:33;;;;;;;24.92;8.80;;;;;;;;;;5031720;28;20022;-64
2022/08/06 00:08:59;;;;;;;25.45;9.27;;;;;;;;;;5032435;28;20025;-65
2022/08/06 00:11:26;;;;;;;20.55;8.93;;;;;;;;;;5032515;28;20030;-65
2022/08/06 00:13:52;;;;;;;20.40;8.88;;;;;;;;;;5031011;28;20062;-65
2022/08/06 00:16:18;;;;;;;19.80;9.75;;;;;;;;;;5031027;28;20021;-64
2022/08/06 00:18:44;;;;;;;24.17;9.00;;;23.10;92.20;;;;;;5030085;28;20022;-65
2022/08/06 00:21:10;;;;;;;17.40;9.07;;;23.10;92.50;;;;;;5029638;28;20036;-65
2022/08/06 00:23:35;;;;;;;20.00;9.52;;;23.00;92.50;;;;;;5031991;28;20025;-64
2022/08/06 00:26:01;;;;;;;14.07;8.95;;;22.90;92.70;;;;;;5032349;28;20045;-65
2022/08/06 00:28:27;;;;;;;20.27;9.77;;;22.80;92.90;;;;;;5032179;28;20041;-64
2022/08/06 00:30:53;;;;;;;16.35;9.02;;;22.80;93.10;;;;;;5031944;28;20057;-65
2022/08/06 00:33:19;;;;;;;15.63;8.73;;;22.70;93.10;;;;;;5030808;28;20414;-65
2022/08/06 00:35:44;;;;;;;17.65;9.27;;;22.70;93.20;;;;;;5031811;28;20026;-65
2022/08/06 00:38:11;;;;;;;15.80;8.23;;;;;;;;;;5030670;28;20021;-65
2022/08/06 00:40:37;;;;;;;15.02;9.07;;;22.60;92.90;;;;;;5030747;28;20146;-64
2022/08/06 00:43:04;;;;;;;9.82;7.88;;;22.50;93.00;;;;;;5030964;28;20109;-65
2022/08/06 00:45:31;;;;;;;10.93;7.68;;;22.50;93.30;;;;;;5030850;28;20048;-65
2022/08/06 00:47:58;;;;;;;16.05;8.82;;;22.50;93.30;;;;;;5029265;28;20033;-66
2022/08/06 00:50:24;;;;;;;14.63;8.10;;;22.50;93.30;;;;;;5030623;28;20449;-67
2022/08/06 00:52:50;;;;;;;18.23;8.02;;;22.50;93.20;;;;;;5030419;28;20037;-66
2022/08/06 00:55:16;;;;;;;13.25;9.07;;;22.50;93.10;;;;;;5030939;28;20030;-65
2022/08/06 00:57:42;;;;;;;25.33;8.32;;;22.50;93.30;;;;;;5029653;28;20033;-65
2022/08/06 01:00:08;;;;;;;18.45;8.50;;;22.60;93.50;;;;;;5030437;28;20030;-65
2022/08/06 01:02:34;;;;;;;9.20;8.00;;;22.50;93.60;;;;;;5031654;28;20036;-65
2022/08/06 01:05:00;;;;;;;14.65;7.85;;;22.60;93.60;;;;;;5031679;28;20025;-65
2022/08/06 01:07:26;;;;;;;10.82;7.25;;;22.50;93.40;;;;;;5030340;28;20094;-64
2022/08/06 01:09:52;;;;;;;14.10;8.20;;;;;;;;;;5031835;28;20032;-64
2022/08/06 01:12:19;;;;;;;15.40;8.00;;;;;;;;;;5030519;28;20048;-64
2022/08/06 01:14:45;;;;;;;13.25;8.00;;;;;;;;;;5030207;28;20357;-64
2022/08/06 01:17:24;;;;;;;14.65;8.65;;;;;;;;;;5030085;28;20366;-64
2022/08/06 01:19:53;;;;;;;18.10;8.55;;;22.40;94.30;;;;;;5031173;28;20059;-64
2022/08/06 01:22:37;;;;;;;16.58;8.35;;;22.30;94.60;;;;;;5031363;28;20032;-64
2022/08/06 01:25:21;;;;;;;11.48;8.57;;;22.10;94.80;;;;;;5031350;28;20025;-64
2022/08/06 01:27:56;;;;;;;13.80;9.27;;;22.00;95.20;;;;;;5031365;28;20033;-64
2022/08/06 01:30:27;;;;;;;13.25;9.27;;;21.80;95.40;;;;;;5031123;28;20025;-64
2022/08/06 01:33:12;;;;;;;11.82;9.13;;;21.70;95.80;;;;;;5031268;28;20066;-64
2022/08/06 01:35:41;;;;;;;10.55;8.93;;;21.70;95.90;;;;;;5029931;28;20343;-64
2022/08/06 01:38:13;;;;;;;21.10;9.82;;;21.70;95.80;;;;;;5031056;28;20116;-63
2022/08/06 01:40:41;;;;;;;14.73;9.38;;;21.80;96.10;;;;;;5031148;28;20102;-64
2022/08/06 01:43:11;;;;;;;16.13;9.10;;;21.80;96.00;;;;;;5029772;28;20041;-64
2022/08/06 01:45:39;;;;;;;12.17;7.83;;;21.90;96.10;;;;;;5031141;28;20022;-64
2022/08/06 01:48:09;;;;;;;14.43;7.43;;;22.50;95.60;;;;;;5029707;28;20029;-63
2022/08/06 01:50:39;;;;;;;15.75;8.73;;;22.50;95.80;;;;;;5031027;28;20074;-64
2022/08/06 01:53:07;;;;;;;15.40;8.48;;;;;;;;;;5030655;28;20033;-64
2022/08/06 01:55:40;;;;;;;8.65;7.53;;;22.50;95.80;;;;;;5030887;28;20040;-64
2022/08/06 01:58:07;;;;;;;11.82;6.97;;;23.00;95.20;;;;;;5030821;28;20484;-64
2022/08/06 02:00:39;;;;;;;11.50;8.60;;;23.10;94.90;;;;;;5030885;28;20040;-64
2022/08/06 02:03:14;;;;;;;7.95;7.03;;;23.20;95.00;;;;;;5030823;28;20021;-64
2022/08/06 02:05:43;;;;;;;11.15;7.90;;;23.30;94.90;;;;;;5031024;28;20480;-64
2022/08/06 02:08:13;;;;;;;13.90;8.15;;;23.30;94.70;;;;;;5030435;28;20104;-64
2022/08/06 02:10:40;;;;;;;13.77;9.48;;;23.40;94.70;;;;;;5029438;28;20410;-65
2022/08/06 02:13:09;;;;;;;9.27;7.95;;;23.40;94.40;;;;;;5030656;28;20022;-65
2022/08/06 02:15:37;;;;;;;14.50;7.97;;;23.20;95.00;;;;;;5030588;28;20105;-64
2022/08/06 02:18:08;;;;;;;14.93;9.23;;;23.40;94.80;;;;;;5030211;28;20361;-64
2022/08/06 02:20:41;;;;;;;18.33;10.85;;;23.30;94.80;;;;;;5030592;28;20116;-64
2022/08/06 02:23:09;;;;;;;13.60;9.23;;;;;;;;;;5030538;28;20030;-64
2022/08/06 02:25:41;;;;;;;13.88;10.55;;;22.80;95.10;;;;;;5030218;28;20088;-64
2022/08/06 02:28:07;;;;;;;18.13;10.57;;;;;;;;;;5030455;28;20048;-64
2022/08/06 02:30:38;;;;;;;8.82;7.93;;;22.70;95.30;;;;;;5030436;28;20067;-64
2022/08/06 02:33:05;;;;;;;13.95;11.18;;;22.80;96.00;;;;;;5030423;28;20018;-64
2022/08/06 02:35:37;;;;;;;15.05;11.07;;;22.60;96.00;;;;;;5030330;28;20064;-64
2022/08/06 02:38:31;;;;;;;18.25;11.20;;;22.20;96.50;;;;;;5028964;28;20037;-65
2022/08/06 02:41:04;;;;;;;15.15;10.23;;;22.20;96.90;;;;;;5029679;28;20053;-64
2022/08/06 02:43:35;;;;;;;22.60;11.98;;;22.40;96.90;;;;;;5030234;28;20086;-64
2022/08/06 02:46:13;;;;;;;12.47;8.40;;;22.10;96.90;;;;;;5030130;28;20468;-64
2022/08/06 02:48:54;;;;;;;10.80;9.43;;;22.40;97.20;;;;;;5028904;28;20032;-65
2022/08/06 02:51:23;;;;;;;18.95;10.98;;;;;;;;;;5030214;28;20454;-65
2022/08/06 02:54:01;;;;;;;18.95;11.25;;;;;;;;;;5030084;28;20025;-65
2022/08/06 02:56:28;;;;;;;14.88;9.38;;;;;;;;;;5030127;28;20017;-65
2022/08/06 02:58:57;;;;;;;13.55;9.27;;;22.60;96.80;;;;;;5030059;28;20028;-65
2022/08/06 03:01:36;;;;;;;12.95;9.35;;;23.00;96.80;;;;;;5030095;28;20529;-64
2022/08/06 03:04:02;;;;;;;19.60;9.98;;;23.00;96.60;;;;;;5030007;28;20025;-65
2022/08/06 03:06:34;;;;;;;22.70;12.02;;;23.00;96.20;;;;;;5029959;28;20029;-66
2022/08/06 03:09:03;;;;;;;16.42;10.20;;;22.80;96.60;;;;;;5028596;28;20034;-65
2022/08/06 03:11:34;;;;;;;14.00;8.63;;;22.90;96.60;;;;;;5028919;28;20413;-65
2022/08/06 03:14:02;;;;;;;19.50;11.45;;;23.10;96.70;;;;;;5028567;28;20025;-65
2022/08/06 03:16:33;;;;;;;19.90;12.00;;;23.00;96.30;;;;;;5028511;28;20028;-64
2022/08/06 03:19:00;;;;;;;20.27;13.00;;;;;;;;;;5028495;28;20365;-64
2022/08/06 03:21:28;;;;;;;17.65;12.00;;;;;;;;;;5029837;28;20025;-64
2022/08/06 03:23:54;;;;;;;17.20;12.90;;;22.60;96.50;;;;;;5029726;28;20041;-64
2022/08/06 03:26:20;;;;;;;24.25;13.35;;;22.10;97.50;;;;;;5028189;28;20059;-65
2022/08/06 03:28:47;;;;;;;30.17;13.98;;;21.80;98.00;;;;;;5029654;28;20030;-65
2022/08/06 03:31:14;;;;;;;19.15;11.07;;;21.30;98.70;;;;;;5029710;28;20021;-64
2022/08/06 03:33:40;;;;;;;16.92;11.15;;;21.60;99.30;;;;;;5029648;28;20052;-64
2022/08/06 03:36:06;;;;;;;23.52;13.70;;;22.30;98.70;;;;;;5029625;28;20053;-64
2022/08/06 03:38:40;;;;;;;18.13;13.52;;;22.00;98.20;;;;;;5029392;28;20036;-65
2022/08/06 03:41:08;;;;;;;23.17;13.52;;;21.60;98.80;;;;;;5028350;28;20414;-65
2022/08/06 03:43:34;;;;;;;21.85;13.15;;;21.50;99.00;;;;;;5028237;28;20498;-65
2022/08/06 03:46:03;;;;;;;21.58;12.98;;;21.10;99.60;;;;;;5029457;28;20038;-64
2022/08/06 03:48:34;;;;;;;20.13;14.60;;;20.90;99.90;;;;;;5029714;28;20026;-64
2022/08/06 03:51:03;;;;;;;25.25;14.20;;;;;;;;;;5029493;28;20377;-65
2022/08/06 03:53:32;;;;;;;23.38;13.55;;;;;;;;;;5030781;28;20021;-63
2022/08/06 03:55:59;;;;;;;21.67;13.80;;;;;;;;;;5032748;28;20009;-64
2022/08/06 03:58:26;;;;;;;24.83;14.95;;;;;;;;;;5032628;28;20021;-64
2022/08/06 04:01:01;;;;;;;30.63;18.10;;;;;;;;;;5032726;28;20388;-66
2022/08/06 04:03:28;;;;;;;22.05;12.00;;;;;;;;;;5032665;28;20074;-66
2022/08/06 04:05:55;;;;;;;32.65;17.00;;;;;;;;;;5031388;28;20453;-65
2022/08/06 04:08:22;;;;;;;23.63;16.60;;;;;;;;;;5032536;28;20028;-66
2022/08/06 04:10:49;;;;;;;36.60;19.30;;;;;;;;;;5032595;28;20017;-65
2022/08/06 04:13:16;;;;;;;30.38;18.27;;;;;;;;;;5031117;28;20108;-65
2022/08/06 04:15:42;;;;;;;44.65;24.85;;;;;;;;;;5032412;28;20025;-66
2022/08/06 04:18:11;;;;;;;34.17;19.90;;;;;;;;;;5032326;28;20034;-64
2022/08/06 04:20:39;;;;;;;22.88;15.25;;;;;;;;;;5032433;28;20032;-63
2022/08/06 04:23:05;;;;;;;30.15;17.15;;;;;;;;;;5031014;28;20453;-65
2022/08/06 04:25:36;;;;;;;32.92;16.00;;;;;;;;;;5030699;28;21254;-65
2022/08/06 04:28:03;;;;;;;30.67;19.10;;;;;;;;;;5031030;28;20021;-65
2022/08/06 04:30:29;;;;;;;31.50;16.70;;;;;;;;;;5030887;28;20028;-63
2022/08/06 04:32:55;;;;;;;31.42;15.38;;;;;;;;;;5032195;28;20021;-65
2022/08/06 04:35:22;;;;;;;29.48;14.20;;;;;;;;;;5032397;28;20022;-65
2022/08/06 04:37:48;;;;;;;27.08;14.38;;;;;;;;;;5031758;28;20378;-65
2022/08/06 04:40:15;;;;;;;23.00;14.05;;;;;;;;;;5032078;28;20061;-64
2022/08/06 04:42:41;;;;;;;22.48;12.95;;;;;;;;;;5032104;28;20117;-65
2022/08/06 04:45:08;;;;;;;30.08;13.32;;;;;;;;;;5031989;28;20018;-65
2022/08/06 04:47:35;;;;;;;21.45;12.82;;;;;;;;;;5030608;28;20025;-64
2022/08/06 04:50:01;;;;;;;18.75;12.63;;;;;;;;;;5031895;28;20039;-65
2022/08/06 04:52:28;;;;;;;17.48;12.68;;;;;;;;;;5031899;28;20017;-65
2022/08/06 04:54:54;;;;;;;28.25;13.95;;;;;;;;;;5031808;28;20033;-65
2022/08/06 04:57:20;;;;;;;25.55;12.85;;;;;;;;;;5031416;28;20377;-66
2022/08/06 04:59:47;;;;;;;23.10;12.30;;;;;;;;;;5030422;28;20033;-65
2022/08/06 05:02:13;;;;;;;22.00;12.15;;;;;;;;;;5030488;28;20110;-64
2022/08/06 05:04:40;;;;;;;15.20;11.55;;;;;;;;;;5031275;28;20062;-64
2022/08/06 05:07:27;;;;;;;24.15;11.55;;;;;;;;;;5031600;28;20089;-65
2022/08/06 05:09:54;;;;;;;23.17;11.90;;;;;;;;;;5031576;28;20018;-65
2022/08/06 05:12:35;;;;;;;16.35;10.63;;;;;;;;;;5031406;28;20044;-65
2022/08/06 05:15:07;;;;;;;15.15;10.65;;;;;;;;;;5031514;28;20022;-65
2022/08/06 05:17:34;;;;;;;16.80;10.75;;;;;;;;;;5030183;28;20034;-65
2022/08/06 05:20:02;;;;;;;18.27;11.45;;;;;;;;;;5030147;28;20029;-65
2022/08/06 05:22:29;;;;;;;16.00;10.00;;;;;;;;;;5031511;28;20033;-65
2022/08/06 05:24:55;;;;;;;16.10;9.63;;;;;;;;;;5030060;28;20081;-66
2022/08/06 05:27:21;;;;;;;21.30;9.02;;;;;;;;;;5031389;28;20078;-66
2022/08/06 05:29:48;;;;;;;14.57;9.30;;;;;;;;;;5031286;28;20471;-66
2022/08/06 05:32:14;;;;;;;21.77;9.55;;;;;;;;;;5031338;28;20092;-65
2022/08/06 05:34:40;;;;;;;12.25;8.57;;;;;;;;;;5031241;28;20029;-64
2022/08/06 05:37:06;;;;;;;15.68;8.43;;;;;;;;;;5031137;28;20513;-65
2022/08/06 05:39:33;;;;;;;12.80;8.70;;;;;;;;;;5031091;28;20116;-65
2022/08/06 05:41:59;;;;;;;17.70;9.10;;;;;;;;;;5029905;28;20097;-64
2022/08/06 05:44:25;;;;;;;13.77;8.20;;;;;;;;;;5031004;28;20068;-63
2022/08/06 05:46:52;;;;;;;19.13;8.32;;;;;;;;;;5030961;28;20094;-63
2022/08/06 05:49:22;;;;;;;18.27;8.38;;;;;;;;;;5030991;28;20078;-63
2022/08/06 05:52:12;;;;;;;17.23;8.65;;;;;;;;;;5031018;28;20063;-64
2022/08/06 05:54:48;;;;;;;15.13;8.07;;;;;;;;;;5030934;28;20021;-64
2022/08/06 05:57:18;;;;;;;16.25;8.02;;;;;;;;;;5029480;28;20105;-63
2022/08/06 05:59:47;;;;;;;16.55;7.95;;;;;;;;;;5030826;28;20108;-63
2022/08/06 06:02:18;;;;;;;17.98;7.10;;;;;;;;;;5030859;28;20021;-64
2022/08/06 06:04:46;;;;;;;17.30;7.35;;;;;;;;;;5030817;28;20102;-63
2022/08/06 06:07:13;;;;;;;12.35;7.38;;;;;;;;;;5029452;28;20022;-63
2022/08/06 06:09:41;;;;;;;17.90;7.68;;;;;;;;;;5030669;28;20029;-63
2022/08/06 06:12:07;;;;;;;14.40;6.80;;;;;;;;;;5031008;28;20028;-63
2022/08/06 06:14:43;;;;;;;17.00;6.70;;;;;;;;;;5029339;28;20052;-64
2022/08/06 06:17:27;;;;;;;19.85;7.40;;;;;;;;;;5029688;28;20017;-63
2022/08/06 06:20:00;;;;;;;12.00;6.10;;;;;;;;;;5029233;28;20484;-66
2022/08/06 06:22:29;;;;;;;15.65;6.03;;;;;;;;;;5030304;28;20403;-63
2022/08/06 06:25:00;;;;;;;12.00;5.97;;;22.30;99.90;;;;;;5030460;28;20013;-64
2022/08/06 06:27:35;;;;;;;10.38;6.65;;;25.00;97.10;;;;;;5030576;28;20045;-65
2022/08/06 06:30:06;;;;;;;14.43;6.75;;;25.00;97.00;;;;;;5030398;28;20029;-63
2022/08/06 06:32:32;;;;;;;14.10;6.38;;;25.10;96.70;;;;;;5029056;28;20036;-63
2022/08/06 06:35:21;;;;;;;12.48;6.10;;;25.30;96.90;;;;;;5030312;28;20113;-64
2022/08/06 06:38:10;;;;;;;17.45;6.85;;;25.40;96.40;;;;;;5030163;28;20030;-63
2022/08/06 06:41:04;;;;;;;16.33;7.00;;;25.50;95.90;;;;;;5016780;28;20061;-64
2022/08/06 06:43:48;;;;;;;18.27;6.47;;;25.70;96.00;;;;;;5030178;28;20380;-63
2022/08/06 06:46:22;;;;;;;15.32;6.45;;;26.00;95.60;;;;;;5030169;28;20458;-63
2022/08/06 06:49:09;;;;;;;11.15;4.80;;;26.00;94.80;;;;;;5030186;28;20029;-65
2022/08/06 06:51:44;;;;;;;13.23;5.85;;;26.20;94.90;;;;;;5028923;28;20108;-62
2022/08/06 06:54:24;;;;;;;10.23;5.50;;;26.30;94.20;;;;;;5030328;28;20030;-64
2022/08/06 06:56:52;;;;;;;12.95;5.57;;;26.40;94.40;;;;;;5030106;28;20048;-63
2022/08/06 06:59:30;;;;;;;7.20;4.85;;;26.50;94.60;;;;;;5029953;28;20029;-64
2022/08/06 07:01:57;;;;;;;9.15;5.35;;;26.80;93.10;;;;;;5029644;28;20026;-65
2022/08/06 07:04:25;;;;;;;12.95;5.40;;;26.80;92.90;;;;;;5030076;28;20021;-65
2022/08/06 07:06:54;;;;;;;9.43;4.97;;;26.90;93.80;;;;;;5029957;28;20078;-65
2022/08/06 07:09:25;;;;;;;5.43;4.80;;;;;;;;;;5029455;28;20112;-65
2022/08/06 07:11:54;;;;;;;11.02;5.85;;;;;;;;;;5029895;28;20018;-65
2022/08/06 07:14:21;;;;;;;11.95;5.30;;;;;;;;;;5029825;28;20025;-65
2022/08/06 07:16:48;;;;;;;10.32;5.13;;;;;;;;;;5029472;28;20476;-62
2022/08/06 07:19:18;;;;;;;15.48;5.50;;;27.10;93.30;;;;;;5029367;28;20098;-66
2022/08/06 07:21:46;;;;;;;9.02;4.53;;;27.80;92.10;;;;;;5029770;28;20033;-65
2022/08/06 07:24:14;;;;;;;8.18;4.47;;;;;;;;;;5028145;28;20033;-65
2022/08/06 07:26:43;;;;;;;12.32;5.35;;;27.90;91.70;;;;;;5029930;28;20061;-65
2022/08/06 07:29:10;;;;;;;15.43;5.18;;;28.10;90.90;;;;;;5033117;28;20087;-64
2022/08/06 07:31:38;;;;;;;9.10;4.95;;;28.30;89.30;;;;;;5033107;28;20025;-65
2022/08/06 07:34:04;;;;;;;13.40;4.60;;;28.40;90.50;;;;;;5033148;28;20053;-64
2022/08/06 07:36:46;;;;;;;11.95;4.78;;;28.60;88.80;;;;;;5033007;28;20025;-64
2022/08/06 07:39:17;;;;;;;8.88;4.85;;;28.90;87.40;;;;;;5032875;28;20025;-64
2022/08/06 07:41:46;;;;;;;15.23;5.60;;;29.00;89.30;;;;;;5032837;28;20040;-65
2022/08/06 07:44:13;;;;;;;14.35;5.10;;;29.10;88.40;;;;;;5031640;28;20053;-64
2022/08/06 07:46:43;;;;;;;14.23;4.95;;;29.10;88.30;;;;;;5032657;28;20049;-64
2022/08/06 07:49:12;;;;;;;17.10;5.57;;;29.20;87.30;;;;;;5032542;28;20078;-64
2022/08/06 07:51:40;;;;;;;11.68;4.90;;;29.40;87.50;;;;;;5031529;28;20454;-65
2022/08/06 07:54:08;;;;;;;12.93;4.15;;;29.60;85.00;;;;;;5032202;28;20109;-65
2022/08/06 07:56:36;;;;;;;13.85;5.13;;;29.70;83.30;;;;;;5032035;28;20407;-65
2022/08/06 07:59:04;;;;;;;16.63;4.45;;;29.80;83.90;;;;;;5029796;28;20040;-64
2022/08/06 08:01:31;;;;;;;10.77;4.53;;;30.00;82.50;;;;;;5032683;28;20018;-64
2022/08/06 08:06:43;;;;;;;13.55;4.53;;;30.30;82.50;;;;;;5031978;28;20029;-65
2022/08/06 08:09:14;;;;;;;13.38;4.68;;;30.40;81.60;;;;;;5031180;28;20373;-64
2022/08/06 08:11:41;;;;;;;14.30;4.97;;;30.60;81.10;;;;;;5032530;28;20049;-64
2022/08/06 08:14:10;;;;;;;14.50;5.20;;;30.70;80.70;;;;;;5032201;28;20029;-65
2022/08/06 08:16:37;;;;;;;15.77;4.97;;;30.90;80.10;;;;;;5032423;28;20061;-66
2022/08/06 08:19:18;;;;;;;16.92;4.60;;;31.00;79.90;;;;;;5032288;28;20036;-66
2022/08/06 08:21:44;;;;;;;;;;;31.10;79.10;;;;;;5032803;28;20045;-64
2022/08/06 08:24:10;;;;;;;10.35;4.68;;;31.30;78.30;;;;;;5032332;28;19956;-66
2022/08/06 08:26:36;;;;;;;7.95;4.20;;;31.50;77.00;;;;;;5031982;28;20046;-65
2022/08/06 08:29:02;;;;;;;8.13;3.58;;;31.70;76.30;;;;;;5031958;28;20052;-65
2022/08/06 08:31:28;;;;;;;7.65;3.70;;;31.80;75.60;;;;;;5030893;28;20370;-65
2022/08/06 08:33:54;;;;;;;9.10;4.40;;;32.00;74.30;;;;;;5031010;28;20036;-64
2022/08/06 08:36:21;;;;;;;5.75;3.42;;;32.10;73.20;;;;;;5032126;28;20162;-65
2022/08/06 08:38:46;;;;;;;9.13;4.82;;;32.10;73.50;;;;;;5031166;28;20124;-65
2022/08/06 08:42:08;;;;;;;7.70;3.90;;;32.40;75.90;;;;;;5032063;28;20170;-65
2022/08/06 08:44:34;;;;;;;8.05;3.60;;;32.60;71.60;;;;;;5035224;28;20053;-66
2022/08/06 08:47:01;;;;;;;5.40;3.10;;;32.80;69.40;;;;;;5030637;28;20083;-66
2022/08/06 08:50:05;;;;;;;4.05;2.55;;;32.80;70.20;;;;;;5030571;28;20025;-65
2022/08/06 08:52:37;;;;;;;9.40;2.95;;;33.20;68.40;;;;;;5072314;28;20051;-65
2022/08/06 08:55:06;;;;;;;4.90;3.05;;;33.30;67.30;;;;;;5055612;28;20099;-65
2022/08/06 08:57:33;;;;;;;5.60;3.13;;;33.50;68.70;;;;;;5072136;28;20048;-65
2022/08/06 09:00:01;;;;;;;4.82;2.78;;;33.50;67.00;;;;;;5072299;28;20464;-66
2022/08/06 09:02:28;;;;;;;5.25;3.13;;;;;;;;;;5072249;28;20032;-66
2022/08/06 09:04:54;;;;;;;7.13;2.90;;;33.70;65.80;;;;;;5072208;28;20469;-65
2022/08/06 09:07:20;;;;;;;13.63;3.45;;;33.80;66.70;;;;;;5072217;28;20017;-66
2022/08/06 09:09:46;;;;;;;5.15;2.10;;;33.90;64.80;;;;;;5072085;28;20036;-66
2022/08/06 09:12:12;;;;;;;2.92;2.20;;;34.00;63.60;;;;;;5070846;28;20063;-67
2022/08/06 09:14:38;;;;;;;5.88;2.45;;;34.20;63.60;;;;;;5070867;28;20025;-67
2022/08/06 09:17:06;;;;;;;5.65;2.58;;;34.30;62.40;;;;;;5071850;28;20469;-67
2022/08/06 09:19:33;;;;;;;8.80;2.70;;;34.50;63.20;;;;;;5071678;28;20028;-66
2022/08/06 09:21:59;;;;;;;2.67;2.42;;;34.60;63.10;;;;;;5071770;28;20044;-66
2022/08/06 09:24:26;;;;;;;7.35;2.17;;;34.70;62.10;;;;;;5029088;28;20472;-66
2022/08/06 09:27:03;;;;;;;5.60;2.40;;;34.90;60.10;;;;;;5013000;28;20050;-66
2022/08/06 09:29:29;;;;;;;3.63;1.50;;;35.00;61.00;;;;;;5031202;28;20064;-65
2022/08/06 09:31:55;;;;;;;5.28;2.10;;;35.20;60.50;;;;;;5031170;28;20445;-65
2022/08/06 09:34:21;;;;;;;3.90;2.05;;;35.30;60.00;;;;;;5029943;28;20082;-67
2022/08/06 09:36:48;;;;;;;5.00;2.72;;;;;;;;;;5031055;28;20025;-67
2022/08/06 09:39:14;;;;;;;7.88;2.20;;;35.40;59.90;;;;;;5030961;28;20021;-67
2022/08/06 09:41:47;;;;;;;6.78;2.90;;;35.70;59.10;;;;;;5031038;28;20029;-66
2022/08/06 09:44:14;;;;;;;4.07;2.42;;;35.70;59.40;;;;;;5031066;28;20033;-66
2022/08/06 09:46:45;;;;;;;8.88;2.92;;;35.80;59.40;;;;;;5030860;28;20021;-66
2022/08/06 09:49:12;;;;;;;7.53;2.40;;;;;;;;;;5041423;27;20112;-65
2022/08/06 09:51:38;;;;;;;3.15;2.20;;;;;;;;;;5030874;28;20024;-69
2022/08/06 09:54:06;;;;;;;5.53;2.95;;;;;;;;;;5030832;28;20024;-68
2022/08/06 09:56:32;;;;;;;7.28;2.72;;;36.40;59.50;;;;;;5030616;28;20335;-69
2022/08/06 09:59:04;;;;;;;6.45;2.72;;;36.50;59.80;;;;;;5029374;28;20440;-69
2022/08/06 10:01:42;;;;;;;8.50;2.75;;;36.80;61.50;;;;;;5030381;28;20428;-67
2022/08/06 10:04:14;;;;;;;8.68;3.08;;;36.70;67.40;;;;;;5029338;28;20517;-66
2022/08/06 10:06:52;;;;;;;4.53;2.97;;;;;;;;;;5030870;28;20021;-66
2022/08/06 10:09:18;;;;;;;5.03;3.00;;;;;;;;;;5030369;28;20365;-67
2022/08/06 10:11:44;;;;;;;5.72;2.85;;;;;;;;;;5030550;28;20467;-68
2022/08/06 10:14:29;;;;;;;8.85;3.67;;;37.30;58.00;;;;;;5030420;28;20055;-65
2022/08/06 10:17:06;;;;;;;11.38;3.22;;;37.50;58.00;;;;;;5029224;28;20060;-66
2022/08/06 10:19:33;;;;;;;7.53;3.03;;;37.50;57.60;;;;;;5030376;28;20029;-67
2022/08/06 10:22:14;;;;;;;10.18;2.90;;;37.70;58.50;;;;;;5030124;28;20060;-66
2022/08/06 10:24:43;;;;;;;4.82;2.30;;;37.80;57.80;;;;;;5030587;28;20128;-67
2022/08/06 10:27:14;;;;;;;8.80;3.58;;;38.10;57.50;;;;;;5030441;28;20068;-68
2022/08/06 10:29:43;;;;;;;5.75;3.53;;;38.20;57.90;;;;;;5030117;28;20036;-67
2022/08/06 10:32:16;;;;;;;7.55;2.60;;;38.40;57.40;;;;;;5029454;28;20041;-67
2022/08/06 10:34:44;;;;;;;6.10;2.20;;;38.80;56.80;;;;;;5030005;28;20033;-65
2022/08/06 10:37:11;;;;;;;5.60;2.85;;;39.00;55.80;;;;;;5029833;28;20116;-65
2022/08/06 10:39:45;;;;;;;3.10;2.42;;;38.70;55.00;;;;;;5029429;28;20034;-67
2022/08/06 10:42:12;;;;;;;4.50;2.78;;;39.00;53.40;;;;;;5029841;28;20021;-67
2022/08/06 10:44:39;;;;;;;5.65;2.80;;;39.60;53.90;;;;;;5030205;28;20025;-67
2022/08/06 10:47:05;;;;;;;2.67;2.47;;;40.40;52.70;;;;;;5029029;28;20105;-67
2022/08/06 10:49:33;;;;;;;4.80;2.30;;;40.50;54.10;;;;;;5030104;28;20033;-67
2022/08/06 10:51:59;;;;;;;6.13;2.88;;;40.50;51.50;;;;;;5030436;28;20024;-67
2022/08/06 10:54:26;;;;;;;4.35;2.85;;;41.50;52.20;;;;;;5030070;28;20060;-67
2022/08/06 10:56:56;;;;;;;5.05;2.40;;;42.10;51.10;;;;;;5030273;28;20028;-67
2022/08/06 10:59:22;;;;;;;4.70;2.33;;;;;;;;;;5030307;28;20464;-67
2022/08/06 11:02:13;;;;;;;4.13;2.67;;;;;;;;;;5030743;28;20014;-67
2022/08/06 11:04:55;;;;;;;2.58;2.38;;;43.50;49.80;;;;;;5033611;28;20097;-66
2022/08/06 11:07:24;;;;;;;2.88;2.00;;;43.40;50.40;;;;;;5033576;28;20040;-67
2022/08/06 11:10:13;;;;;;;7.60;2.42;;;;;;;;;;5033456;28;20063;-67
2022/08/06 11:12:44;;;;;;;3.15;2.30;;;44.40;48.10;;;;;;5052103;28;20042;-67
2022/08/06 11:15:10;;;;;;;7.70;2.45;;;44.80;48.10;;;;;;5033498;28;20045;-67
2022/08/06 11:17:47;;;;;;;5.18;2.30;;;44.20;47.60;;;;;;5031963;28;20033;-67
2022/08/06 11:20:32;;;;;;;6.68;2.20;;;;;;;;;;5032061;28;20116;-67
2022/08/06 11:22:59;;;;;;;10.88;3.00;;;42.40;47.90;;;;;;5033455;28;20044;-68
2022/08/06 11:25:44;;;;;;;5.35;2.40;;;42.40;48.10;;;;;;5033568;28;20671;-67
2022/08/06 11:28:15;;;;;;;4.28;2.78;;;44.00;48.30;;;;;;5033476;28;20132;-67
2022/08/06 11:30:43;;;;;;;15.80;2.80;;;;;;;;;;5033207;28;20029;-66
2022/08/06 11:33:10;;;;;;;8.35;2.75;;;44.90;47.90;;;;;;5033091;28;20109;-67
2022/08/06 11:35:36;;;;;;;2.95;2.50;;;45.70;49.40;;;;;;5033110;28;20053;-67
2022/08/06 11:38:07;;;;;;;10.13;3.25;;;43.90;46.50;;;;;;5032738;28;20064;-67
2022/08/06 11:40:56;;;;;;;3.28;2.30;;;45.60;46.20;;;;;;5032946;28;20449;-67
2022/08/06 11:43:40;;;;;;;3.75;2.45;;;46.30;45.90;;;;;;5032923;28;20018;-67
2022/08/06 11:46:18;;;;;;;4.60;2.55;;;47.10;44.50;;;;;;5031681;28;20026;-67
2022/08/06 11:48:59;;;;;;;5.95;2.33;;;;;;;;;;5032806;28;20150;-67
2022/08/06 11:51:42;;;;;;;7.43;2.20;;;;;;;;;;5032766;28;20018;-67
2022/08/06 11:54:10;;;;;;;3.53;1.95;;;;;;;;;;5032770;28;20102;-67
2022/08/06 11:56:37;;;;;;;2.42;2.15;;;;;;;;;;5032721;28;20029;-67
2022/08/06 11:59:13;;;;;;;3.03;1.80;;;;;;;;;;5032627;28;20029;-67
2022/08/06 12:01:46;;;;;;;4.10;1.83;;;47.70;44.50;;;;;;5032431;28;20029;-65
2022/08/06 12:04:42;;;;;;;5.85;1.90;;;48.20;44.30;;;;;;5032598;28;20521;-66
2022/08/06 12:07:18;;;;;;;6.05;2.35;;;;;;;;;;5032690;28;20026;-66
2022/08/06 12:09:45;;;;;;;2.78;1.90;;;49.60;42.70;;;;;;5032420;28;20032;-66
2022/08/06 12:12:50;;;;;;;5.82;1.80;;;49.90;43.50;;;;;;5032464;28;20461;-66
2022/08/06 12:15:16;;;;;;;3.38;2.00;;;50.00;42.10;;;;;;5072213;28;20091;-66
2022/08/06 12:17:59;;;;;;;6.03;1.92;;;49.60;42.60;;;;;;5073077;28;20058;-66
2022/08/06 12:20:41;;;;;;;8.88;2.13;;;50.00;42.20;;;;;;5073154;28;20033;-66
2022/08/06 12:23:12;;;;;;;4.88;1.95;;;49.70;42.20;;;;;;5073041;28;20028;-66
2022/08/06 12:25:46;;;;;;;5.50;1.98;;;50.50;42.30;;;;;;5072733;28;20067;-66
2022/08/06 12:28:15;;;;;;;3.97;1.77;;;48.90;42.20;;;;;;5073200;28;20104;-66
2022/08/06 12:30:41;;;;;;;5.47;1.90;;;48.50;42.20;;;;;;5072893;28;20465;-66
2022/08/06 12:33:08;;;;;;;7.32;2.33;;;48.70;42.70;;;;;;5072838;28;20028;-66
2022/08/06 12:35:34;;;;;;;5.10;1.85;;;47.80;42.80;;;;;;5055961;28;20522;-67
2022/08/06 12:38:01;;;;;;;8.13;2.08;;;;;;;;;;5072911;28;20124;-66
2022/08/06 12:40:27;;;;;;;6.72;2.10;;;49.00;45.00;;;;;;5072728;28;20074;-67
2022/08/06 12:43:14;;;;;;;5.93;2.40;;;50.10;45.10;;;;;;5072667;28;20028;-68
2022/08/06 12:45:40;;;;;;;6.90;1.95;;;;;;;;;;5072665;28;20029;-67
2022/08/06 12:48:08;;;;;;;4.15;2.08;;;;;;;;;;5072822;28;20032;-67
2022/08/06 12:50:36;;;;;;;7.78;2.28;;;44.80;42.20;;;;;;5067811;28;20025;-65
2022/08/06 12:53:10;;;;;;;2.63;2.42;;;47.40;44.40;;;;;;5032201;28;20032;-67
2022/08/06 12:55:43;;;;;;;4.20;2.80;;;48.50;42.90;;;;;;5031951;28;20022;-67
2022/08/06 12:58:10;;;;;;;2.38;2.17;;;;;;;;;;5031850;28;20036;-67
2022/08/06 13:00:37;;;;;;;3.75;2.45;;;;;;;;;;5031752;28;20048;-67
2022/08/06 13:03:05;;;;;;;4.25;2.60;;;45.20;42.50;;;;;;5031755;28;20022;-67
2022/08/06 13:05:33;;;;;;;8.55;2.83;;;47.40;42.80;;;;;;5031773;28;20078;-67
2022/08/06 13:07:59;;;;;;;4.05;2.10;;;49.90;41.00;;;;;;5031946;28;20357;-64
2022/08/06 13:10:26;;;;;;;7.97;2.15;;;50.10;40.20;;;;;;5031703;28;20028;-65
2022/08/06 13:13:05;;;;;;;5.43;2.20;;;50.30;41.20;;;;;;5031811;28;20436;-65
2022/08/06 13:15:32;;;;;;;10.52;2.28;;;47.40;42.30;;;;;;5031588;28;20032;-65
2022/08/06 13:18:02;;;;;;;4.72;2.15;;;45.80;42.70;;;;;;5031250;28;20064;-67
2022/08/06 13:20:40;;;;;;;8.85;1.75;;;45.30;42.80;;;;;;5029880;28;20025;-67
2022/08/06 13:23:07;;;;;;;6.93;2.28;;;44.00;44.40;;;;;;5031168;28;20096;-69
2022/08/06 13:25:43;;;;;;;6.32;2.25;;;;;;;;;;5050454;28;20041;-66
2022/08/06 13:28:12;;;;;;;5.65;2.25;;;43.00;45.50;;;;;;5030113;28;20017;-69
2022/08/06 13:30:38;;;;;;;11.20;2.10;;;49.90;41.90;;;;;;5031294;28;20018;-67
2022/08/06 13:33:15;;;;;;;4.53;1.65;;;50.20;41.60;;;;;;5093740;27;20076;-67
2022/08/06 13:35:42;;;;;;;4.68;2.10;;;51.00;41.00;;;;;;5135135;27;20058;-67